Time;durP1;ratioP1;P1;durP2;ratioP2;P2;SDS_P1;SDS_P2;PMS_P1;PMS_P2;Temp;Humidity;BMP_temperature;BMP_pressure;BME280_temperature;BME280_humidity;BME280_pressure;Samples;Min_cycle;Max_cycle;Signal;HPM_P1;HPM_P2
2021/11/13 00:02:23;;;;;;;;;;;13.60;99.90;;;;;;5034915;28;855;-49
2021/11/13 00:04:49;;;;;;;;;;;13.60;99.90;;;;;;5034819;28;778;-49
2021/11/13 00:07:15;;;;;;;;;;;13.60;99.90;;;;;;5035068;28;983;-49
2021/11/13 00:09:42;;;;;;;;;;;13.60;99.90;;;;;;5034809;28;884;-49
2021/11/13 00:12:08;;;;;;;;;;;13.60;99.90;;;;;;5034759;28;866;-48
2021/11/13 00:14:34;;;;;;;;;;;13.60;99.90;;;;;;5034695;28;1969;-48
2021/11/13 00:17:00;;;;;;;;;;;13.60;99.90;;;;;;5033875;28;1204;-48
2021/11/13 00:19:29;;;;;;;;;;;13.60;99.90;;;;;;5029292;28;980;-48
2021/11/13 00:21:55;;;;;;;;;;;13.60;99.90;;;;;;5019063;28;755;-48
2021/11/13 00:24:21;;;;;;;;;;;13.60;99.90;;;;;;5034603;28;938;-48
2021/11/13 00:26:47;;;;;;;;;;;13.60;99.90;;;;;;5022317;28;866;-48
2021/11/13 00:29:13;;;;;;;;;;;13.60;99.90;;;;;;5037614;28;847;-48
2021/11/13 00:31:39;;;;;;;;;;;13.60;99.90;;;;;;5020144;28;790;-48
2021/11/13 00:34:05;;;;;;;;;;;13.50;99.90;;;;;;5019967;28;831;-48
2021/11/13 00:36:31;;;;;;;;;;;13.50;99.90;;;;;;5019482;28;1902;-48
2021/11/13 00:38:57;;;;;;;;;;;13.50;99.90;;;;;;5020140;28;918;-48
2021/11/13 00:41:23;;;;;;;;;;;13.50;99.90;;;;;;5020196;28;986;-48
2021/11/13 00:43:49;;;;;;;;;;;13.50;99.90;;;;;;5019287;28;903;-48
2021/11/13 00:46:15;;;;;;;;;;;13.50;99.90;;;;;;5020224;28;799;-48
2021/11/13 00:48:41;;;;;;;;;;;13.50;99.90;;;;;;5019877;28;826;-48
2021/11/13 00:51:07;;;;;;;;;;;13.50;99.90;;;;;;5019897;28;836;-48
2021/11/13 00:53:33;;;;;;;;;;;13.50;99.90;;;;;;5024921;28;828;-48
2021/11/13 00:55:59;;;;;;;;;;;13.50;99.90;;;;;;5019675;28;2412;-48
2021/11/13 00:58:26;;;;;;;;;;;13.50;99.90;;;;;;5019413;28;1015;-48
2021/11/13 01:00:53;;;;;;;;;;;13.50;99.90;;;;;;5019676;28;770;-48
2021/11/13 01:03:19;;;;;;;;;;;13.50;99.90;;;;;;5019657;28;1051;-48
2021/11/13 01:05:45;;;;;;;;;;;13.50;99.90;;;;;;5019668;28;826;-48
2021/11/13 01:08:11;;;;;;;;;;;13.40;99.90;;;;;;5019395;28;905;-48
2021/11/13 01:10:38;;;;;;;;;;;13.40;99.90;;;;;;5019394;28;799;-48
2021/11/13 01:13:04;;;;;;;;;;;13.40;99.90;;;;;;5019159;28;1097;-48
2021/11/13 01:15:31;;;;;;;;;;;13.40;99.90;;;;;;5018714;28;1903;-48
2021/11/13 01:17:57;;;;;;;;;;;13.40;99.90;;;;;;5019432;28;817;-48
2021/11/13 01:20:24;;;;;;;;;;;13.40;99.90;;;;;;5019212;28;858;-48
2021/11/13 01:22:51;;;;;;;;;;;13.40;99.90;;;;;;5006047;28;1326;-48
2021/11/13 01:25:18;;;;;;;;;;;13.40;99.90;;;;;;5001604;28;1204;-48
2021/11/13 01:27:43;;;;;;;;;;;13.40;99.90;;;;;;5001362;28;1103;-48
2021/11/13 01:30:10;;;;;;;;;;;13.40;99.90;;;;;;5019098;28;813;-48
2021/11/13 01:32:37;;;;;;;;;;;13.40;99.90;;;;;;5037176;28;1158;-48
2021/11/13 01:35:05;;;;;;;;;;;13.40;99.90;;;;;;5037356;28;1911;-48
2021/11/13 01:37:31;;;;;;;;;;;13.40;99.90;;;;;;5037393;28;787;-48
2021/11/13 01:39:57;;;;;;;;;;;13.30;99.90;;;;;;5035960;28;787;-48
2021/11/13 01:42:25;;;;;;;;;;;13.30;99.90;;;;;;5037206;28;984;-48
2021/11/13 01:44:53;;;;;;;;;;;13.30;99.90;;;;;;5036805;28;870;-49
2021/11/13 01:47:19;;;;;;;;;;;13.30;99.90;;;;;;5036885;28;960;-48
2021/11/13 01:49:45;;;;;;;;;;;13.30;99.90;;;;;;5036894;28;823;-48
2021/11/13 01:52:12;;;;;;;;;;;13.30;99.90;;;;;;5036205;28;941;-48
2021/11/13 01:54:40;;;;;;;;;;;13.30;99.90;;;;;;5036376;28;1969;-48
2021/11/13 01:57:11;;;;;;;;;;;13.30;99.90;;;;;;5036271;28;956;-49
2021/11/13 01:59:38;;;;;;;;;;;13.30;99.90;;;;;;5036089;28;1019;-49
2021/11/13 02:02:05;;;;;;;;;;;13.30;99.90;;;;;;5035792;28;822;-48
2021/11/13 02:04:31;;;;;;;;;;;13.30;99.90;;;;;;5036537;28;882;-49
2021/11/13 02:06:58;;;;;;;;;;;13.30;99.90;;;;;;5035164;28;959;-48
2021/11/13 02:09:24;;;;;;;;;;;13.30;99.90;;;;;;5036445;28;987;-48
2021/11/13 02:11:50;;;;;;;;;;;13.30;99.90;;;;;;5035901;28;1184;-48
2021/11/13 02:14:16;;;;;;;;;;;13.20;99.90;;;;;;5035920;28;1024;-48
2021/11/13 02:16:42;;;;;;;;;;;13.20;99.90;;;;;;5035838;28;1977;-48
2021/11/13 02:19:08;;;;;;;;;;;13.20;99.90;;;;;;5036352;28;753;-48
2021/11/13 02:21:34;;;;;;;;;;;13.20;99.90;;;;;;5036602;28;928;-48
2021/11/13 02:24:00;;;;;;;;;;;13.20;99.90;;;;;;5030159;28;767;-48
2021/11/13 02:26:26;;;;;;;;;;;13.20;99.90;;;;;;5036375;28;996;-48
2021/11/13 02:28:55;;;;;;;;;;;13.20;99.90;;;;;;5035622;28;823;-50
2021/11/13 02:31:30;;;;;;;;;;;13.20;99.90;;;;;;4988486;28;970;-50
2021/11/13 02:33:56;;;;;;;;;;;13.20;99.90;;;;;;5017594;28;771;-50
2021/11/13 02:36:22;;;;;;;;;;;13.20;99.90;;;;;;5017826;28;1967;-51
2021/11/13 02:38:53;;;;;;;;;;;13.20;99.90;;;;;;5000646;28;806;-50
2021/11/13 02:41:22;;;;;;;;;;;13.20;99.90;;;;;;5017119;28;1063;-51
2021/11/13 02:43:49;;;;;;;;;;;13.20;99.90;;;;;;5017285;28;1012;-50
2021/11/13 02:46:15;;;;;;;;;;;13.20;99.90;;;;;;5017260;28;829;-50
2021/11/13 02:48:42;;;;;;;;;;;13.20;99.90;;;;;;5017762;28;892;-48
2021/11/13 02:51:09;;;;;;;;;;;13.20;99.90;;;;;;5017387;28;740;-48
2021/11/13 02:53:35;;;;;;;;;;;13.20;99.90;;;;;;5032110;28;867;-48
2021/11/13 02:56:02;;;;;;;;;;;13.20;99.90;;;;;;5035756;28;1964;-48
2021/11/13 02:58:29;;;;;;;;;;;13.20;99.90;;;;;;5035359;28;867;-48
2021/11/13 03:00:57;;;;;;;;;;;13.20;99.90;;;;;;5017916;28;873;-48
2021/11/13 03:03:23;;;;;;;;;;;13.20;99.90;;;;;;5029668;28;806;-48
2021/11/13 03:05:56;;;;;;;;;;;13.10;99.90;;;;;;5035035;28;1111;-48
2021/11/13 03:08:24;;;;;;;;;;;13.20;99.90;;;;;;5035434;28;869;-48
2021/11/13 03:10:50;;;;;;;;;;;13.10;99.90;;;;;;5034914;28;854;-48
2021/11/13 03:13:16;;;;;;;;;;;13.10;99.90;;;;;;5035172;28;850;-48
2021/11/13 03:15:42;;;;;;;;;;;13.20;99.90;;;;;;5035192;28;1954;-48
2021/11/13 03:18:08;;;;;;;;;;;13.10;99.90;;;;;;5035373;28;809;-48
2021/11/13 03:20:34;;;;;;;;;;;13.10;99.90;;;;;;5020712;28;1432;-48
2021/11/13 03:23:00;;;;;;;;;;;13.10;99.90;;;;;;5029228;28;1394;-48
2021/11/13 03:25:29;;;;;;;;;;;13.10;99.90;;;;;;5023415;28;873;-48
2021/11/13 03:27:58;;;;;;;;;;;13.10;99.90;;;;;;5016246;28;957;-48
2021/11/13 03:30:24;;;;;;;;;;;13.10;99.90;;;;;;5017264;28;858;-48
2021/11/13 03:32:51;;;;;;;;;;;13.10;99.90;;;;;;5016647;28;1694;-48
2021/11/13 03:35:19;;;;;;;;;;;13.10;99.90;;;;;;5016480;28;1983;-48
2021/11/13 03:37:46;;;;;;;;;;;13.10;99.90;;;;;;5016974;28;856;-48
2021/11/13 03:40:12;;;;;;;;;;;13.10;99.90;;;;;;5017440;28;767;-49
2021/11/13 03:42:39;;;;;;;;;;;13.10;99.90;;;;;;5016288;28;1019;-50
2021/11/13 03:45:06;;;;;;;;;;;13.10;99.90;;;;;;5016786;28;892;-51
2021/11/13 03:47:32;;;;;;;;;;;13.10;99.90;;;;;;5016266;28;914;-50
2021/11/13 03:49:58;;;;;;;;;;;13.10;99.90;;;;;;5019623;28;1342;-51
2021/11/13 03:52:24;;;;;;;;;;;13.10;99.90;;;;;;5027874;28;882;-48
2021/11/13 03:54:50;;;;;;;;;;;13.10;99.90;;;;;;4999674;28;840;-48
2021/11/13 03:57:16;;;;;;;;;;;13.10;99.90;;;;;;5016611;28;1965;-48
2021/11/13 03:59:42;;;;;;;;;;;13.10;99.90;;;;;;5016496;28;851;-48
2021/11/13 04:02:10;;;;;;;;;;;13.10;99.90;;;;;;5016988;28;772;-48
2021/11/13 04:04:37;;;;;;;;;;;13.10;99.90;;;;;;5020128;28;1006;-48
2021/11/13 04:07:04;;;;;;;;;;;13.10;99.90;;;;;;5020929;28;771;-48
2021/11/13 04:09:31;;;;;;;;;;;13.10;99.90;;;;;;5020669;28;789;-48
2021/11/13 04:12:03;;;;;;;;;;;13.10;99.90;;;;;;5020497;28;869;-48
2021/11/13 04:14:29;;;;;;;;;;;13.10;99.90;;;;;;5003364;28;931;-48
2021/11/13 04:16:55;;;;;;;;;;;13.10;99.90;;;;;;5020326;28;1971;-48
2021/11/13 04:19:22;;;;;;;;;;;13.10;99.90;;;;;;5020777;28;919;-51
2021/11/13 04:21:48;;;;;;;;;;;13.10;99.90;;;;;;5020791;28;863;-51
2021/11/13 04:24:14;;;;;;;;;;;13.00;99.90;;;;;;5027993;28;928;-51
2021/11/13 04:26:40;;;;;;;;;;;13.00;99.90;;;;;;5024508;28;1018;-51
2021/11/13 04:29:06;;;;;;;;;;;13.00;99.90;;;;;;5019028;28;813;-51
2021/11/13 04:31:32;;;;;;;;;;;13.00;99.90;;;;;;5020007;28;928;-51
2021/11/13 04:34:01;;;;;;;;;;;13.00;99.90;;;;;;5020267;28;808;-51
2021/11/13 04:36:32;;;;;;;;;;;13.00;99.90;;;;;;5019456;28;1902;-51
2021/11/13 04:38:59;;;;;;;;;;;13.00;99.90;;;;;;5020132;28;1030;-51
2021/11/13 04:41:25;;;;;;;;;;;13.00;99.90;;;;;;5019179;28;914;-51
2021/11/13 04:43:51;;;;;;;;;;;13.00;99.90;;;;;;5019982;28;750;-51
2021/11/13 04:46:17;;;;;;;;;;;13.00;99.90;;;;;;5020062;28;817;-51
2021/11/13 04:48:43;;;;;;;;;;;13.00;99.90;;;;;;5019924;28;833;-51
2021/11/13 04:51:09;;;;;;;;;;;13.00;99.90;;;;;;5019926;28;850;-51
2021/11/13 04:53:35;;;;;;;;;;;13.00;99.90;;;;;;5035074;28;763;-51
2021/11/13 04:56:01;;;;;;;;;;;13.00;99.90;;;;;;5032764;28;1977;-51
2021/11/13 04:58:26;;;;;;;;;;;13.00;99.90;;;;;;5037769;28;958;-51
2021/11/13 05:00:52;;;;;;;;;;;13.00;99.90;;;;;;5037988;28;892;-51
2021/11/13 05:03:18;;;;;;;;;;;13.00;99.90;;;;;;5019479;28;820;-51
2021/11/13 05:05:44;;;;;;;;;;;13.00;99.90;;;;;;5038056;28;981;-51
2021/11/13 05:08:10;;;;;;;;;;;12.90;99.90;;;;;;5038026;28;842;-52
2021/11/13 05:10:36;;;;;;;;;;;12.90;99.90;;;;;;5037713;28;831;-51
2021/11/13 05:13:02;;;;;;;;;;;12.90;99.90;;;;;;5037495;28;887;-51
2021/11/13 05:15:28;;;;;;;;;;;12.90;99.90;;;;;;5036920;28;1977;-51
2021/11/13 05:17:54;;;;;;;;;;;12.90;99.90;;;;;;5037889;28;887;-51
2021/11/13 05:20:20;;;;;;;;;;;12.90;99.90;;;;;;5037474;28;946;-51
2021/11/13 05:22:47;;;;;;;;;;;12.90;99.90;;;;;;5014911;28;1417;-51
2021/11/13 05:25:14;;;;;;;;;;;12.90;99.90;;;;;;5037415;28;1070;-51
2021/11/13 05:27:40;;;;;;;;;;;12.90;99.90;;;;;;5036607;28;944;-51
2021/11/13 05:30:08;;;;;;;;;;;12.90;99.90;;;;;;5036833;28;964;-51
2021/11/13 05:32:34;;;;;;;;;;;12.90;99.90;;;;;;5037354;28;758;-51
2021/11/13 05:35:00;;;;;;;;;;;12.90;99.90;;;;;;5036823;28;849;-51
2021/11/13 05:37:26;;;;;;;;;;;12.90;99.90;;;;;;5037322;28;2017;-51
2021/11/13 05:39:52;;;;;;;;;;;12.90;99.90;;;;;;5037455;28;876;-51
2021/11/13 05:42:18;;;;;;;;;;;12.90;99.90;;;;;;5036994;28;874;-48
2021/11/13 05:44:45;;;;;;;;;;;12.90;99.90;;;;;;5018168;28;1114;-48
2021/11/13 05:47:11;;;;;;;;;;;12.90;99.90;;;;;;5018787;28;814;-48
2021/11/13 05:49:37;;;;;;;;;;;12.90;99.90;;;;;;5019035;28;962;-48
2021/11/13 05:52:03;;;;;;;;;;;12.90;99.90;;;;;;5022717;28;849;-48
2021/11/13 05:54:29;;;;;;;;;;;12.90;99.90;;;;;;5036939;28;794;-48
2021/11/13 05:56:55;;;;;;;;;;;12.90;99.90;;;;;;5036617;28;1890;-48
2021/11/13 05:59:21;;;;;;;;;;;12.90;99.90;;;;;;5036612;28;1036;-48
2021/11/13 06:01:47;;;;;;;;;;;12.90;99.90;;;;;;5036800;28;1196;-49
2021/11/13 06:04:15;;;;;;;;;;;12.80;99.90;;;;;;5036753;28;786;-48
2021/11/13 06:06:40;;;;;;;;;;;12.80;99.90;;;;;;5036588;28;1009;-48
2021/11/13 06:09:06;;;;;;;;;;;12.80;99.90;;;;;;5036855;28;865;-48
2021/11/13 06:11:32;;;;;;;;;;;12.80;99.90;;;;;;5036019;28;1152;-48
2021/11/13 06:13:58;;;;;;;;;;;12.80;99.90;;;;;;5036554;28;808;-48
2021/11/13 06:16:24;;;;;;;;;;;12.80;99.90;;;;;;5018759;28;1968;-48
2021/11/13 06:18:50;;;;;;;;;;;12.80;99.90;;;;;;5036670;28;907;-48
2021/11/13 06:21:16;;;;;;;;;;;12.80;99.90;;;;;;5036408;28;842;-48
2021/11/13 06:23:45;;;;;;;;;;;12.80;99.90;;;;;;5036273;28;800;-48
2021/11/13 06:26:12;;;;;;;;;;;12.80;99.90;;;;;;5035987;28;900;-50
2021/11/13 06:28:38;;;;;;;;;;;12.80;99.90;;;;;;5036185;28;1116;-48
2021/11/13 06:31:05;;;;;;;;;;;12.80;99.90;;;;;;5036223;28;758;-48
2021/11/13 06:33:31;;;;;;;;;;;12.80;99.90;;;;;;5036279;28;793;-48
2021/11/13 06:35:57;;;;;;;;;;;12.80;99.90;;;;;;5036371;28;1906;-48
2021/11/13 06:38:23;;;;;;;;;;;12.80;99.90;;;;;;5036168;28;801;-48
2021/11/13 06:40:49;;;;;;;;;;;12.80;99.90;;;;;;5036147;28;880;-48
2021/11/13 06:43:15;;;;;;;;;;;12.80;99.90;;;;;;5036317;28;820;-48
2021/11/13 06:45:41;;;;;;;;;;;12.70;99.90;;;;;;5035920;28;796;-51
2021/11/13 06:48:07;;;;;;;;;;;12.80;99.90;;;;;;5035426;28;1049;-51
2021/11/13 06:50:34;;;;;;;;;;;12.80;99.90;;;;;;5035718;28;854;-51
2021/11/13 06:53:02;;;;;;;;;;;12.80;99.90;;;;;;5035952;28;813;-51
2021/11/13 06:55:28;;;;;;;;;;;12.80;99.90;;;;;;5035208;28;1898;-51
2021/11/13 06:57:54;;;;;;;;;;;12.80;99.90;;;;;;5035488;28;906;-51
2021/11/13 07:00:20;;;;;;;;;;;12.80;99.90;;;;;;5035807;28;903;-51
2021/11/13 07:02:46;;;;;;;;;;;12.80;99.90;;;;;;5035285;28;866;-51
2021/11/13 07:05:12;;;;;;;;;;;12.80;99.90;;;;;;5016959;28;872;-51
2021/11/13 07:07:39;;;;;;;;;;;12.80;99.90;;;;;;5017598;28;899;-51
2021/11/13 07:10:06;;;;;;;;;;;12.80;99.90;;;;;;5017439;28;811;-52
2021/11/13 07:12:32;;;;;;;;;;;12.80;99.90;;;;;;5017246;28;1018;-51
2021/11/13 07:14:58;;;;;;;;;;;12.80;99.90;;;;;;5017033;28;1355;-51
2021/11/13 07:17:24;;;;;;;;;;;12.80;99.90;;;;;;5017571;28;1918;-51
2021/11/13 07:19:51;;;;;;;;;;;12.80;99.90;;;;;;5017138;28;739;-51
2021/11/13 07:22:17;;;;;;;;;;;12.80;99.90;;;;;;5005200;28;869;-51
2021/11/13 07:24:43;;;;;;;;;;;12.90;99.90;;;;;;5032515;28;809;-51
2021/11/13 07:27:09;;;;;;;;;;;12.90;99.90;;;;;;5035106;28;884;-51
2021/11/13 07:29:44;;;;;;;;;;;12.90;99.90;;;;;;5034691;28;1116;-51
2021/11/13 07:32:11;;;;;;;;;;;13.00;99.90;;;;;;5026544;28;1325;-51
2021/11/13 07:34:37;;;;;;;;;;;13.10;99.90;;;;;;5016394;28;1064;-51
2021/11/13 07:37:04;;;;;;;;;;;13.20;99.90;;;;;;5016610;28;1906;-51
2021/11/13 07:39:30;;;;;;;;;;;13.40;99.90;;;;;;5016987;28;896;-51
2021/11/13 07:41:56;;;;;;;;;;;13.60;99.90;;;;;;5017069;28;800;-51
2021/11/13 07:44:22;;;;;;;;;;;13.80;99.90;;;;;;5016716;28;909;-51
2021/11/13 07:46:48;;;;;;;;;;;13.90;99.90;;;;;;5016886;28;865;-51
2021/11/13 07:49:14;;;;;;;;;;;14.10;99.90;;;;;;5017022;28;805;-51
2021/11/13 07:51:40;;;;;;;;;;;14.20;99.90;;;;;;5017974;28;788;-51
2021/11/13 07:54:06;;;;;;;;;;;14.20;99.90;;;;;;5034443;28;1037;-49
2021/11/13 07:56:32;;;;;;;;;;;14.30;99.90;;;;;;5016439;28;1915;-49
2021/11/13 07:58:58;;;;;;;;;;;14.30;99.90;;;;;;5016655;28;936;-49
2021/11/13 08:01:24;;;;;;;;;;;14.30;99.90;;;;;;5016730;28;893;-49
2021/11/13 08:03:51;;;;;;;;;;;14.30;99.90;;;;;;4999671;28;850;-49
2021/11/13 08:06:17;;;;;;;;;;;14.40;99.90;;;;;;5016954;28;894;-49
2021/11/13 08:08:44;;;;;;;;;;;14.40;99.90;;;;;;5016487;28;1152;-49
2021/11/13 08:11:10;;;;;;;;;;;14.50;99.90;;;;;;5016697;28;749;-49
2021/11/13 08:13:39;;;;;;;;;;;14.60;99.90;;;;;;5016423;28;821;-49
2021/11/13 08:16:05;;;;;;;;;;;14.70;99.90;;;;;;5016383;28;1983;-49
2021/11/13 08:18:31;;;;;;;;;;;14.80;99.90;;;;;;5016855;28;954;-49
2021/11/13 08:20:59;;;;;;;;;;;14.90;99.90;;;;;;5016045;28;1032;-49
2021/11/13 08:23:26;;;;;;;;;;;14.90;99.90;;;;;;5030749;28;996;-49
2021/11/13 08:25:52;;;;;;;;;;;14.90;99.90;;;;;;5017256;28;862;-49
2021/11/13 08:28:19;;;;;;;;;;;14.90;99.90;;;;;;5034516;28;834;-49
2021/11/13 08:30:46;;;;;;;;;;;14.90;99.90;;;;;;5034472;28;845;-49
2021/11/13 08:33:12;;;;;;;;;;;14.90;99.90;;;;;;5034189;28;1030;-49
2021/11/13 08:35:39;;;;;;;;;;;14.90;99.90;;;;;;5034397;28;1902;-49
2021/11/13 08:38:06;;;;;;;;;;;14.90;99.90;;;;;;5034767;28;969;-49
2021/11/13 08:40:32;;;;;;;;;;;14.90;99.90;;;;;;5033885;28;918;-49
2021/11/13 08:42:58;;;;;;;;;;;14.90;99.90;;;;;;5033755;28;977;-49
2021/11/13 08:45:24;;;;;;;;;;;14.80;99.90;;;;;;5034534;28;842;-49
2021/11/13 08:47:51;;;;;;;;;;;14.80;99.90;;;;;;5034131;28;870;-49
2021/11/13 08:50:19;;;;;;;;;;;14.70;99.90;;;;;;5037220;28;873;-49
2021/11/13 08:52:46;;;;;;;;;;;14.70;99.90;;;;;;5037898;28;901;-49
2021/11/13 08:55:13;;;;;;;;;;;14.70;99.90;;;;;;5038002;28;794;-49
2021/11/13 08:57:41;;;;;;;;;;;14.60;99.90;;;;;;5037156;28;1907;-49
2021/11/13 09:00:08;;;;;;;;;;;14.60;99.90;;;;;;5037777;28;920;-49
2021/11/13 09:02:34;;;;;;;;;;;14.60;99.90;;;;;;5037882;28;861;-49
2021/11/13 09:05:00;;;;;;;;;;;14.50;99.90;;;;;;5038045;28;916;-49
2021/11/13 09:07:27;;;;;;;;;;;14.50;99.90;;;;;;5037673;28;950;-49
2021/11/13 09:09:54;;;;;;;;;;;14.50;99.90;;;;;;5019120;28;948;-49
2021/11/13 09:12:24;;;;;;;;;;;14.40;99.90;;;;;;5019380;28;872;-49
2021/11/13 09:14:51;;;;;;;;;;;14.40;99.90;;;;;;5033609;28;1220;-49
2021/11/13 09:17:19;;;;;;;;;;;14.40;99.90;;;;;;5032612;28;1910;-49
2021/11/13 09:19:46;;;;;;;;;;;14.30;99.90;;;;;;5037611;28;851;-49
2021/11/13 09:22:12;;;;;;;;;;;14.30;99.90;;;;;;5037466;28;918;-49
2021/11/13 09:24:38;;;;;;;;;;;14.30;99.90;;;;;;5037739;28;795;-49
2021/11/13 09:27:04;;;;;;;;;;;14.30;99.90;;;;;;5031775;28;1366;-49
2021/11/13 09:29:30;;;;;;;;;;;14.20;99.90;;;;;;5028116;28;747;-49
2021/11/13 09:31:56;;;;;;;;;;;14.20;99.90;;;;;;5019107;28;863;-49
2021/11/13 09:34:22;;;;;;;;;;;14.20;99.90;;;;;;5019154;28;794;-49
2021/11/13 09:36:48;;;;;;;;;;;14.20;99.90;;;;;;5034260;28;1903;-49
2021/11/13 09:39:14;;;;;;;;;;;14.10;99.90;;;;;;5026541;28;827;-49
2021/11/13 09:41:40;;;;;;;;;;;14.10;99.90;;;;;;5018938;28;869;-49
2021/11/13 09:44:07;;;;;;;;;;;14.10;99.90;;;;;;5001408;28;932;-49
2021/11/13 09:46:34;;;;;;;;;;;14.00;99.90;;;;;;5018228;28;881;-49
2021/11/13 09:49:00;;;;;;;;;;;14.10;99.90;;;;;;5018237;28;948;-49
2021/11/13 09:51:26;;;;;;;;;;;14.00;99.90;;;;;;5018636;28;897;-49
2021/11/13 09:53:53;;;;;;;;;;;14.00;99.90;;;;;;5036226;28;843;-49
2021/11/13 09:56:19;;;;;;;;;;;14.00;99.90;;;;;;5036824;28;1914;-49
2021/11/13 09:58:45;;;;;;;;;;;14.00;99.90;;;;;;5036364;28;1033;-49
2021/11/13 10:01:11;;;;;;;;;;;14.00;99.90;;;;;;5035845;28;758;-49
2021/11/13 10:03:37;;;;;;;;;;;14.00;99.90;;;;;;5036921;28;874;-49
2021/11/13 10:06:09;;;;;;;;;;;14.00;99.90;;;;;;5036953;28;802;-49
2021/11/13 10:08:35;;;;;;;;;;;14.00;99.90;;;;;;5036270;28;809;-49
2021/11/13 10:11:03;;;;;;;;;;;14.00;99.90;;;;;;5036831;28;1109;-49
2021/11/13 10:13:32;;;;;;;;;;;14.00;99.90;;;;;;5036605;28;827;-49
2021/11/13 10:16:06;;;;;;;;;;;14.10;99.90;;;;;;5035908;28;1977;-49
2021/11/13 10:18:33;;;;;;;;;;;14.00;99.90;;;;;;5036513;28;1041;-49
2021/11/13 10:21:08;;;;;;;;;;;14.10;99.90;;;;;;5036854;28;908;-49
2021/11/13 10:23:36;;;;;;;;;;;14.10;99.90;;;;;;5036986;28;819;-51
2021/11/13 10:26:14;;;;;;;;;;;14.10;99.90;;;;;;5036287;28;1079;-49
2021/11/13 10:28:42;;;;;;;;;;;14.10;99.90;;;;;;5036088;28;785;-49
2021/11/13 10:31:10;;;;;;;;;;;14.10;99.90;;;;;;5035564;28;807;-49
2021/11/13 10:33:37;;;;;;;;;;;14.10;99.90;;;;;;5035981;28;1598;-49
2021/11/13 10:36:04;;;;;;;;;;;14.20;99.90;;;;;;5035337;28;1902;-49
2021/11/13 10:38:31;;;;;;;;;;;14.10;99.90;;;;;;5032307;28;878;-49
2021/11/13 10:41:00;;;;;;;;;;;14.20;99.90;;;;;;5034226;28;955;-49
2021/11/13 10:43:38;;;;;;;;;;;14.20;99.90;;;;;;5018947;28;960;-49
2021/11/13 10:46:04;;;;;;;;;;;14.20;99.90;;;;;;5035780;28;873;-49
2021/11/13 10:48:32;;;;;;;;;;;14.20;99.90;;;;;;5035859;28;870;-49
2021/11/13 10:51:03;;;;;;;;;;;14.20;99.90;;;;;;5002162;28;886;-49
2021/11/13 10:53:31;;;;;;;;;;;14.20;99.90;;;;;;5032202;28;936;-49
2021/11/13 10:56:20;;;;;;;;;;;14.20;99.90;;;;;;5017618;28;877;-51
2021/11/13 10:59:01;;;;;;;;;;;14.20;99.90;;;;;;5012109;28;1196;-49
2021/11/13 11:01:32;;;;;;;;;;;14.20;99.90;;;;;;5017614;28;1007;-51
2021/11/13 11:04:07;;;;;;;;;;;14.10;99.90;;;;;;5017536;28;813;-51
2021/11/13 11:06:39;;;;;;;;;;;14.10;99.90;;;;;;5017432;28;1104;-49
2021/11/13 11:09:19;;;;;;;;;;;14.10;99.90;;;;;;5033536;28;882;-49
2021/11/13 11:11:45;;;;;;;;;;;14.00;99.90;;;;;;5035247;28;783;-49
2021/11/13 11:14:14;;;;;;;;;;;14.00;99.90;;;;;;5035172;28;791;-49
2021/11/13 11:16:42;;;;;;;;;;;14.00;99.90;;;;;;5035214;28;1970;-49
2021/11/13 11:19:08;;;;;;;;;;;14.00;99.90;;;;;;5018049;28;861;-49
2021/11/13 11:21:45;;;;;;;;;;;14.00;99.90;;;;;;5035305;28;809;-49
2021/11/13 11:24:15;;;;;;;;;;;14.00;99.90;;;;;;5018296;28;1256;-49
2021/11/13 11:26:43;;;;;;;;;;;14.00;99.90;;;;;;5017382;28;1007;-49
2021/11/13 11:29:09;;;;;;;;;;;14.00;99.90;;;;;;5032369;28;1302;-51
2021/11/13 11:31:45;;;;;;;;;;;14.00;99.90;;;;;;5017008;28;790;-49
2021/11/13 11:34:32;;;;;;;;;;;14.00;99.90;;;;;;5033391;28;902;-51
2021/11/13 11:37:04;;;;;;;;;;;14.00;99.90;;;;;;5034971;28;1968;-51
2021/11/13 11:39:30;;;;;;;;;;;14.00;99.90;;;;;;5034680;28;873;-49
2021/11/13 11:41:57;;;;;;;;;;;14.00;99.90;;;;;;5035283;28;854;-49
2021/11/13 11:44:23;;;;;;;;;;;14.00;99.90;;;;;;5017382;28;830;-49
2021/11/13 11:46:49;;;;;;;;;;;14.00;99.90;;;;;;5034815;28;908;-49
2021/11/13 11:49:16;;;;;;;;;;;14.00;99.90;;;;;;5034580;28;877;-49
2021/11/13 11:51:42;;;;;;;;;;;13.90;99.90;;;;;;5035130;28;802;-49
2021/11/13 11:54:08;;;;;;;;;;;14.00;99.90;;;;;;5034438;28;1128;-49
2021/11/13 11:56:34;;;;;;;;;;;14.00;99.90;;;;;;5034597;28;1906;-49
2021/11/13 11:59:01;;;;;;;;;;;13.90;99.90;;;;;;5034064;28;1117;-49
2021/11/13 12:01:29;;;;;;;;;;;14.00;99.90;;;;;;5034434;28;905;-49
2021/11/13 12:04:14;;;;;;;;;;;13.90;99.90;;;;;;5035059;28;987;-49
2021/11/13 12:06:45;;;;;;;;;;;13.90;99.90;;;;;;5034809;28;861;-51
2021/11/13 12:09:11;;;;;;;;;;;13.90;99.90;;;;;;5034719;28;859;-51
2021/11/13 12:11:37;;;;;;;;;;;13.90;99.90;;;;;;5028975;28;775;-51
2021/11/13 12:14:29;;;;;;;;;;;14.00;99.90;;;;;;5028420;28;985;-51
2021/11/13 12:17:15;;;;;;;;;;;14.00;99.90;;;;;;5015878;28;1974;-51
2021/11/13 12:19:40;;;;;;;;;;;14.00;99.90;;;;;;5015945;28;1830;-51
2021/11/13 12:22:07;;;;;;;;;;;14.00;99.90;;;;;;5020438;28;838;-51
2021/11/13 12:24:32;;;;;;;;;;;14.00;99.90;;;;;;5036739;28;1045;-51
2021/11/13 12:27:00;;;;;;;;;;;14.10;99.90;;;;;;5038803;28;764;-51
2021/11/13 12:29:26;;;;;;;;;;;14.10;99.90;;;;;;5038068;28;982;-51
2021/11/13 12:31:54;;;;;;;;;;;14.10;99.90;;;;;;5038467;28;885;-51
2021/11/13 12:34:23;;;;;;;;;;;14.00;99.90;;;;;;5038379;28;789;-51
2021/11/13 12:37:02;;;;;;;;;;;14.10;99.90;;;;;;5038512;28;1959;-51
2021/11/13 12:39:29;;;;;;;;;;;14.10;99.90;;;;;;5037839;28;986;-51
2021/11/13 12:42:06;;;;;;;;;;;14.10;99.90;;;;;;5038194;28;948;-51
2021/11/13 12:44:34;;;;;;;;;;;14.10;99.90;;;;;;5037384;28;954;-51
2021/11/13 12:47:09;;;;;;;;;;;14.10;99.90;;;;;;5038115;28;806;-51
2021/11/13 12:49:35;;;;;;;;;;;14.10;99.90;;;;;;5038020;28;874;-51
2021/11/13 12:52:06;;;;;;;;;;;14.10;99.90;;;;;;5038054;28;838;-51
2021/11/13 12:54:34;;;;;;;;;;;14.10;99.90;;;;;;5019807;28;883;-51
2021/11/13 12:57:11;;;;;;;;;;;14.10;99.90;;;;;;5036090;28;1974;-51
2021/11/13 12:59:53;;;;;;;;;;;14.10;99.90;;;;;;5037602;28;817;-51
2021/11/13 13:02:19;;;;;;;;;;;14.10;99.90;;;;;;5037840;28;889;-51
2021/11/13 13:04:46;;;;;;;;;;;14.10;99.90;;;;;;5037408;28;870;-51
2021/11/13 13:07:14;;;;;;;;;;;14.10;99.90;;;;;;5037615;28;1026;-51
2021/11/13 13:09:49;;;;;;;;;;;14.10;99.90;;;;;;5037697;28;825;-51
2021/11/13 13:12:16;;;;;;;;;;;14.10;99.90;;;;;;5037469;28;1003;-51
2021/11/13 13:14:42;;;;;;;;;;;14.00;99.90;;;;;;5037247;28;1101;-50
2021/11/13 13:17:08;;;;;;;;;;;14.00;99.90;;;;;;5037455;28;2083;-51
2021/11/13 13:19:35;;;;;;;;;;;14.10;99.90;;;;;;5037557;28;885;-51
2021/11/13 13:22:06;;;;;;;;;;;14.00;99.90;;;;;;5037058;28;824;-51
2021/11/13 13:24:33;;;;;;;;;;;14.00;99.90;;;;;;5037108;28;861;-51
2021/11/13 13:27:00;;;;;;;;;;;14.00;99.90;;;;;;5036355;28;1286;-51
2021/11/13 13:29:26;;;;;;;;;;;14.00;99.90;;;;;;5018478;28;1441;-51
2021/11/13 13:32:00;;;;;;;;;;;14.00;99.90;;;;;;5019101;28;853;-51
2021/11/13 13:34:26;;;;;;;;;;;14.00;99.90;;;;;;5035981;28;786;-51
2021/11/13 13:36:57;;;;;;;;;;;14.00;99.90;;;;;;5036886;28;1902;-51
2021/11/13 13:39:23;;;;;;;;;;;14.00;99.90;;;;;;5037220;28;870;-51
2021/11/13 13:41:49;;;;;;;;;;;14.00;99.90;;;;;;5037125;28;860;-51
2021/11/13 13:44:17;;;;;;;;;;;14.00;99.90;;;;;;5036767;28;889;-51
2021/11/13 13:46:43;;;;;;;;;;;13.90;99.90;;;;;;5037331;28;849;-51
2021/11/13 13:49:16;;;;;;;;;;;13.90;99.90;;;;;;5018417;28;1249;-51
2021/11/13 13:51:45;;;;;;;;;;;13.90;99.90;;;;;;5036243;28;924;-51
2021/11/13 13:54:15;;;;;;;;;;;13.90;99.90;;;;;;5036938;28;888;-51
2021/11/13 13:56:56;;;;;;;;;;;13.90;99.90;;;;;;5036780;28;1906;-51
2021/11/13 13:59:22;;;;;;;;;;;13.90;99.90;;;;;;5042374;28;898;-51
2021/11/13 14:01:52;;;;;;;;;;;13.90;99.90;;;;;;5036705;28;866;-51
2021/11/13 14:04:18;;;;;;;;;;;13.90;99.90;;;;;;5018980;28;1110;-51
2021/11/13 14:06:44;;;;;;;;;;;13.90;99.90;;;;;;5036527;28;898;-51
2021/11/13 14:09:12;;;;;;;;;;;13.90;99.90;;;;;;5036636;28;1572;-51
2021/11/13 14:11:38;;;;;;;;;;;13.90;99.90;;;;;;5036706;28;845;-51
2021/11/13 14:14:04;;;;;;;;;;;13.90;99.90;;;;;;5036537;28;777;-52
2021/11/13 14:16:32;;;;;;;;;;;14.00;99.90;;;;;;5019372;28;1906;-51
2021/11/13 14:19:06;;;;;;;;;;;13.90;99.90;;;;;;5036407;28;1047;-51
2021/11/13 14:21:32;;;;;;;;;;;13.90;99.90;;;;;;5036623;28;815;-51
2021/11/13 14:23:58;;;;;;;;;;;13.90;99.90;;;;;;5036348;28;806;-51
2021/11/13 14:26:24;;;;;;;;;;;13.90;99.90;;;;;;5036683;28;863;-51
2021/11/13 14:29:01;;;;;;;;;;;14.00;99.90;;;;;;5036096;28;862;-51
2021/11/13 14:31:30;;;;;;;;;;;14.00;99.90;;;;;;5036050;28;1012;-51
2021/11/13 14:34:03;;;;;;;;;;;14.00;99.90;;;;;;5036052;28;755;-51
2021/11/13 14:36:31;;;;;;;;;;;13.90;99.90;;;;;;5036330;28;881;-51
2021/11/13 14:39:16;;;;;;;;;;;14.00;99.90;;;;;;5036315;28;900;-51
2021/11/13 14:41:53;;;;;;;;;;;14.00;99.90;;;;;;5036382;28;835;-51